Time;durP1;ratioP1;P1;durP2;ratioP2;P2;SDS_P1;SDS_P2;PMS_P1;PMS_P2;Temp;Humidity;BMP_temperature;BMP_pressure;BME280_temperature;BME280_humidity;BME280_pressure;Samples;Min_cycle;Max_cycle;Signal;HPM_P1;HPM_P2
2022/08/02 00:00:24;;;;;;;5.72;1.70;;;;;;;16.25;97.96;100991.19;5180504;28;20037;-73
2022/08/02 00:02:54;;;;;;;5.38;1.73;;;;;;;16.14;98.33;100995.31;5180398;28;20034;-73
2022/08/02 00:05:24;;;;;;;7.78;1.83;;;;;;;15.85;100.00;100998.59;5180210;28;20033;-73
2022/08/02 00:07:55;;;;;;;5.30;1.50;;;;;;;15.95;100.00;101000.69;5179724;28;20033;-73
2022/08/02 00:10:25;;;;;;;5.68;1.40;;;;;;;15.78;100.00;101000.69;5180254;28;20108;-73
2022/08/02 00:12:56;;;;;;;7.22;1.77;;;;;;;15.57;100.00;101001.72;5179599;28;20033;-73
2022/08/02 00:15:26;;;;;;;5.90;1.60;;;;;;;15.67;100.00;100995.09;5180474;28;20700;-73
2022/08/02 00:17:57;;;;;;;6.82;2.00;;;;;;;15.76;100.00;100994.66;5178438;28;20018;-73
2022/08/02 00:20:27;;;;;;;5.27;1.73;;;;;;;15.89;98.69;101003.63;5180236;28;20025;-73
2022/08/02 00:22:57;;;;;;;8.25;2.00;;;;;;;15.97;98.31;100997.97;5178529;28;20253;-73
2022/08/02 00:25:28;;;;;;;4.85;1.52;;;;;;;15.89;98.11;101000.97;5180662;28;20065;-73
2022/08/02 00:27:58;;;;;;;7.15;1.88;;;;;;;15.79;98.11;101002.41;5178480;28;20399;-73
2022/08/02 00:30:28;;;;;;;6.05;1.75;;;;;;;15.49;100.00;100998.63;5180229;28;20025;-73
2022/08/02 00:32:59;;;;;;;6.82;1.98;;;;;;;15.16;100.00;100994.94;5183154;28;20025;-73
2022/08/02 00:35:29;;;;;;;8.02;2.00;;;;;;;15.19;100.00;100996.59;5180283;28;20030;-71
2022/08/02 00:37:59;;;;;;;4.03;1.52;;;;;;;15.43;100.00;100993.66;5179595;28;20729;-72
2022/08/02 00:40:30;;;;;;;4.80;1.70;;;;;;;15.55;100.00;100993.03;5179937;28;20045;-73
2022/08/02 00:43:09;;;;;;;6.00;1.88;;;;;;;15.55;100.00;100993.03;5180100;28;20389;-73
2022/08/02 00:45:41;;;;;;;7.22;1.65;;;;;;;15.64;99.09;100992.59;5167062;28;20021;-72
2022/08/02 00:48:12;;;;;;;8.13;1.75;;;;;;;15.09;100.00;100996.19;5178173;28;20045;-72
2022/08/02 00:50:42;;;;;;;9.40;1.60;;;;;;;14.86;100.00;100999.00;5180522;28;20491;-73
2022/08/02 00:53:13;;;;;;;7.20;1.63;;;;;;;14.63;100.00;100998.34;5184036;28;20030;-73
2022/08/02 00:55:43;;;;;;;7.72;1.92;;;;;;;14.53;100.00;101001.47;5184201;28;20221;-73
2022/08/02 00:58:13;;;;;;;5.50;1.80;;;;;;;14.81;100.00;100997.53;5180175;28;20036;-73
2022/08/02 01:00:44;;;;;;;5.65;1.90;;;;;;;14.55;100.00;101008.38;5183528;28;20028;-73
2022/08/02 01:03:14;;;;;;;5.07;1.52;;;;;;;14.32;100.00;101015.56;5184282;28;20107;-73
2022/08/02 01:05:44;;;;;;;5.28;1.80;;;;;;;14.27;100.00;101015.75;5183562;28;20041;-73
2022/08/02 01:08:15;;;;;;;6.35;1.88;;;;;;;14.10;100.00;101014.78;5183322;28;20025;-73
2022/08/02 01:10:45;;;;;;;8.00;2.25;;;;;;;14.32;100.00;101012.94;5183930;28;20149;-73
2022/08/02 01:13:16;;;;;;;9.50;1.90;;;;;;;14.74;100.00;101011.88;5183953;28;20068;-73
2022/08/02 01:15:54;;;;;;;8.02;1.98;;;;;;;14.95;100.00;101009.13;5183785;28;20168;-73
2022/08/02 01:18:33;;;;;;;3.97;1.67;;;;;;;14.94;100.00;101019.72;5183257;28;20041;-73
2022/08/02 01:21:04;;;;;;;6.65;1.70;;;;;;;14.70;100.00;101019.97;5184147;28;20021;-73
2022/08/02 01:23:47;;;;;;;8.33;2.00;;;;;;;14.63;100.00;101026.44;5184170;28;20084;-73
2022/08/02 01:26:37;;;;;;;3.47;1.73;;;;;;;14.68;100.00;101021.81;5181393;28;20264;-73
2022/08/02 01:29:26;;;;;;;8.38;2.08;;;;;;;14.70;100.00;101030.50;5180072;28;20101;-72
2022/08/02 01:32:08;;;;;;;3.20;1.63;;;;;;;15.05;100.00;101027.97;5183360;28;20105;-73
2022/08/02 01:34:45;;;;;;;5.00;1.85;;;;;;;15.10;100.00;101025.97;5179721;28;20680;-73
2022/08/02 01:37:25;;;;;;;4.22;1.67;;;;;;;14.57;100.00;101026.75;5182901;28;20061;-72
2022/08/02 01:40:10;;;;;;;4.32;1.65;;;;;;;14.49;100.00;101024.44;5183223;28;20029;-73
2022/08/02 01:42:46;;;;;;;4.83;1.57;;;;;;;14.49;100.00;101018.31;5180048;28;20029;-73
2022/08/02 01:45:18;;;;;;;5.80;1.67;;;;;;;14.27;100.00;101014.94;5182974;28;20105;-73
2022/08/02 01:47:50;;;;;;;7.13;1.98;;;;;;;13.88;100.00;101016.59;5182727;28;20053;-72
2022/08/02 01:50:26;;;;;;;5.85;1.98;;;;;;;13.96;100.00;101003.97;5183606;28;20028;-73
2022/08/02 01:52:58;;;;;;;5.38;1.70;;;;;;;13.89;100.00;101013.91;5182115;28;20727;-73
2022/08/02 01:55:38;;;;;;;6.88;2.30;;;;;;;13.93;100.00;101004.13;5182888;28;20132;-72
2022/08/02 01:58:13;;;;;;;5.15;1.85;;;;;;;13.79;100.00;101009.09;5178589;28;20026;-72
2022/08/02 02:00:45;;;;;;;6.53;1.77;;;;;;;13.79;100.00;101009.97;5180569;28;20029;-73
2022/08/02 02:03:20;;;;;;;5.60;2.30;;;;;;;13.67;100.00;101006.97;5181797;28;20026;-73
2022/08/02 02:05:54;;;;;;;8.03;2.33;;;;;;;13.61;100.00;101015.09;5182254;28;20514;-73
2022/08/02 02:08:32;;;;;;;6.97;2.00;;;;;;;13.73;100.00;101014.63;5182211;28;20034;-73
2022/08/02 02:11:03;;;;;;;3.88;1.80;;;;;;;13.75;100.00;101005.72;5182695;28;20562;-73
2022/08/02 02:13:36;;;;;;;5.88;2.00;;;;;;;13.71;100.00;101012.03;5182838;28;20033;-73
2022/08/02 02:16:09;;;;;;;4.40;2.05;;;;;;;13.39;100.00;101011.66;5178769;28;20046;-72
2022/08/02 02:18:42;;;;;;;8.15;2.08;;;;;;;13.70;100.00;101004.19;5182586;28;20033;-73
2022/08/02 02:21:13;;;;;;;5.65;2.10;;;;;;;13.70;100.00;101006.84;5181878;28;20022;-72
2022/08/02 02:23:43;;;;;;;6.70;2.00;;;;;;;13.88;100.00;101006.09;5182521;28;20524;-73
2022/08/02 02:26:16;;;;;;;5.13;1.60;;;;;;;13.70;100.00;101007.69;5182264;28;20045;-72
2022/08/02 02:28:46;;;;;;;5.60;1.98;;;;;;;13.47;100.00;101009.56;5213230;23;20085;-74
2022/08/02 02:31:19;;;;;;;6.13;1.92;;;;;;;13.55;100.00;101010.94;5199706;28;20499;-75
2022/08/02 02:34:01;;;;;;;5.45;2.40;;;;;;;13.49;100.00;101013.84;5204890;28;20183;-73
2022/08/02 02:36:33;;;;;;;11.60;6.10;;;;;;;13.44;100.00;101007.06;5202034;28;20104;-72
2022/08/02 02:39:06;;;;;;;20.45;9.60;;;;;;;13.51;100.00;101003.25;5202356;28;20071;-74
2022/08/02 02:41:39;;;;;;;4.75;2.28;;;;;;;13.71;100.00;101005.94;5196778;28;20029;-73
2022/08/02 02:44:15;;;;;;;5.60;1.85;;;;;;;13.59;100.00;101003.81;5201027;28;20028;-74
2022/08/02 02:46:49;;;;;;;3.85;1.83;;;;;;;13.89;100.00;100997.28;5201693;28;20026;-74
2022/08/02 02:49:22;;;;;;;5.43;2.17;;;;;;;13.53;100.00;101007.53;5200876;28;20078;-74
2022/08/02 02:51:54;;;;;;;5.28;2.30;;;;;;;13.39;100.00;101006.41;5202038;28;20032;-72
2022/08/02 02:54:27;;;;;;;6.63;1.95;;;;;;;13.37;100.00;101010.84;5200130;28;20029;-74
2022/08/02 02:56:59;;;;;;;4.75;1.80;;;;;;;13.62;100.00;101003.69;5201455;28;20399;-74
2022/08/02 02:59:31;;;;;;;7.35;1.90;;;;;;;13.55;100.00;100999.63;5201189;28;20532;-74
2022/08/02 03:02:05;;;;;;;5.70;2.80;;;;;;;13.63;100.00;101005.38;5200786;28;20443;-73
2022/08/02 03:04:36;;;;;;;5.55;2.10;;;;;;;13.51;100.00;100998.88;5197831;28;20487;-74
2022/08/02 03:07:08;;;;;;;7.72;2.33;;;;;;;13.34;100.00;101008.31;5183646;28;20084;-74
2022/08/02 03:09:38;;;;;;;7.20;1.90;;;;;;;12.97;100.00;101002.81;5202090;28;20029;-74
2022/08/02 03:12:09;;;;;;;4.07;2.22;;;;;;;12.98;100.00;101002.78;5201785;28;20506;-73
2022/08/02 03:14:42;;;;;;;6.13;1.80;;;;;;;13.14;100.00;100998.63;5201810;28;20025;-74
2022/08/02 03:17:12;;;;;;;4.78;1.75;;;;;;;12.97;100.00;100997.56;5201623;28;20056;-74
2022/08/02 03:19:43;;;;;;;4.65;1.75;;;;;;;13.08;100.00;100998.84;5200282;28;20112;-75
2022/08/02 03:22:14;;;;;;;5.15;1.77;;;;;;;13.09;100.00;101008.44;5201806;28;20022;-72
2022/08/02 03:24:44;;;;;;;4.78;2.00;;;;;;;13.11;100.00;101005.75;5201827;28;20388;-72
2022/08/02 03:27:14;;;;;;;6.38;2.08;;;;;;;13.39;100.00;101001.97;5201178;28;20078;-72
2022/08/02 03:29:46;;;;;;;4.68;1.75;;;;;;;13.61;100.00;100997.56;5201114;28;20022;-72
2022/08/02 03:32:16;;;;;;;5.30;1.60;;;;;;;13.59;100.00;101009.91;5201946;28;20029;-72
2022/08/02 03:34:46;;;;;;;6.55;1.48;;;;;;;13.16;100.00;101002.06;5201142;28;20470;-72
2022/08/02 03:37:18;;;;;;;3.92;1.60;;;;;;;12.98;100.00;101005.41;5200577;28;20098;-72
2022/08/02 03:39:50;;;;;;;7.07;1.75;;;;;;;12.76;100.00;101008.84;5201407;28;20502;-72
2022/08/02 03:42:21;;;;;;;4.15;1.70;;;;;;;12.66;100.00;101007.47;5201112;28;20021;-72
2022/08/02 03:44:52;;;;;;;3.97;1.70;;;;;;;12.80;100.00;101005.19;5198868;28;20025;-72
2022/08/02 03:47:24;;;;;;;4.40;1.73;;;;;;;12.87;100.00;101004.06;5198772;28;20500;-72
2022/08/02 03:49:56;;;;;;;2.65;1.42;;;;;;;12.72;100.00;100999.38;5201136;28;21288;-73
2022/08/02 03:52:27;;;;;;;5.38;1.60;;;;;;;13.17;100.00;101006.38;5201449;28;20048;-72
2022/08/02 03:54:57;;;;;;;5.72;1.52;;;;;;;12.84;100.00;101001.53;5200300;28;20036;-73
2022/08/02 03:57:28;;;;;;;5.15;2.00;;;;;;;12.97;100.00;100994.94;5199128;28;20022;-71
2022/08/02 03:59:59;;;;;;;4.05;1.85;;;;;;;12.85;100.00;101007.66;5199340;28;20380;-73
2022/08/02 04:02:29;;;;;;;3.78;1.48;;;;;;;13.00;100.00;101003.56;5200812;28;20483;-73
2022/08/02 04:04:59;;;;;;;4.28;1.85;;;;;;;12.91;100.00;101014.34;5200685;28;20614;-72
2022/08/02 04:07:30;;;;;;;8.48;1.92;;;;;;;12.91;100.00;101003.88;5199498;28;20074;-72
2022/08/02 04:10:00;;;;;;;6.32;2.20;;;;;;;12.73;100.00;101006.34;5199661;28;20021;-73
2022/08/02 04:12:31;;;;;;;5.72;1.90;;;;;;;13.12;100.00;101013.59;5199254;28;20396;-72
2022/08/02 04:15:04;;;;;;;4.82;1.73;;;;;;;12.88;100.00;101011.00;5201243;28;20071;-73
2022/08/02 04:17:40;;;;;;;7.90;1.83;;;;;;;13.01;100.00;101012.28;5196096;28;20025;-72
2022/08/02 04:20:19;;;;;;;8.02;1.83;;;;;;;13.10;100.00;101004.91;5200663;28;20029;-72
2022/08/02 04:23:05;;;;;;;4.20;1.90;;;;;;;13.27;100.00;101006.88;5199793;28;20114;-72
2022/08/02 04:25:37;;;;;;;3.55;1.67;;;;;;;13.46;100.00;101010.47;5196489;28;20032;-73
2022/08/02 04:28:09;;;;;;;4.75;1.95;;;;;;;13.20;100.00;101008.88;5199916;28;20035;-73
2022/08/02 04:30:40;;;;;;;5.72;1.98;;;;;;;13.21;100.00;101007.13;5196931;28;20104;-73
2022/08/02 04:33:11;;;;;;;5.85;2.10;;;;;;;13.66;100.00;101016.63;5199104;28;20467;-72
2022/08/02 04:35:42;;;;;;;13.25;2.30;;;;;;;13.77;100.00;101019.66;5200509;28;20029;-73
2022/08/02 04:38:14;;;;;;;5.82;1.70;;;;;;;13.66;100.00;101021.03;5199690;28;20036;-72
2022/08/02 04:40:53;;;;;;;4.70;1.85;;;;;;;13.70;100.00;101022.59;5199389;28;20032;-72
2022/08/02 04:43:23;;;;;;;8.82;2.75;;;;;;;13.82;100.00;101011.59;5200276;28;20056;-73
2022/08/02 04:45:54;;;;;;;7.05;2.10;;;;;;;14.10;100.00;101015.59;5200399;28;20179;-73
2022/08/02 04:48:24;;;;;;;8.80;2.17;;;;;;;14.02;100.00;101020.34;5200006;28;20127;-72
2022/08/02 04:50:55;;;;;;;6.85;2.00;;;;;;;13.96;100.00;101028.50;5199478;28;20517;-72
2022/08/02 04:53:25;;;;;;;9.68;2.00;;;;;;;14.13;100.00;101030.41;5200555;28;20038;-72
2022/08/02 04:55:56;;;;;;;9.20;2.30;;;;;;;14.11;100.00;101033.09;5200109;28;20445;-73
2022/08/02 04:58:26;;;;;;;8.15;1.92;;;;;;;13.92;100.00;101028.69;5199129;28;20030;-73
2022/08/02 05:00:56;;;;;;;4.18;1.85;;;;;;;13.94;100.00;101034.72;5198449;28;20021;-73
2022/08/02 05:03:27;;;;;;;8.27;1.98;;;;;;;14.18;100.00;101033.72;5204339;28;20036;-73
2022/08/02 05:05:59;;;;;;;5.38;1.80;;;;;;;14.21;100.00;101030.94;5199785;28;20104;-72
2022/08/02 05:08:29;;;;;;;6.90;2.03;;;;;;;14.28;100.00;101030.63;5199910;28;20033;-73
2022/08/02 05:11:00;;;;;;;8.95;2.05;;;;;;;14.35;100.00;101029.44;5196437;28;20561;-71
2022/08/02 05:13:30;;;;;;;6.18;2.20;;;;;;;14.76;100.00;101017.09;5197889;28;20025;-72
2022/08/02 05:16:02;;;;;;;7.22;2.20;;;;;;;15.00;100.00;101008.91;5198382;28;20026;-73
2022/08/02 05:18:32;;;;;;;5.53;1.85;;;;;;;14.87;100.00;101013.88;5197399;28;20033;-72
2022/08/02 05:21:03;;;;;;;5.40;2.00;;;;;;;16.58;100.00;101000.00;5197442;28;20030;-72
2022/08/02 05:23:33;;;;;;;4.05;1.60;;;;;;;17.96;88.98;100986.81;5196826;28;20399;-73
2022/08/02 05:26:04;;;;;;;5.07;1.60;;;;;;;19.87;80.54;100973.66;5198369;28;20107;-73
2022/08/02 05:28:34;;;;;;;5.30;1.60;;;;;;;19.31;81.15;100990.66;5197632;28;20335;-73
2022/08/02 05:31:04;;;;;;;5.22;1.50;;;;;;;19.78;80.80;101006.94;5199839;28;20017;-73
2022/08/02 05:33:35;;;;;;;2.65;1.20;;;;;;;19.17;81.62;101001.31;5199628;28;20032;-73
2022/08/02 05:36:05;;;;;;;4.63;1.70;;;;;;;19.83;80.45;100991.59;5195596;28;20383;-72
2022/08/02 05:38:36;;;;;;;4.53;1.33;;;;;;;19.70;80.11;101003.97;5202384;28;20029;-72
2022/08/02 05:41:06;;;;;;;6.30;1.60;;;;;;;19.21;82.37;101012.53;5202493;28;20176;-73
2022/08/02 05:43:37;;;;;;;4.85;1.63;;;;;;;18.67;84.09;101007.19;5203790;28;20017;-73
2022/08/02 05:46:07;;;;;;;4.65;1.40;;;;;;;20.16;79.69;101001.78;5203254;28;20215;-73
2022/08/02 05:48:37;;;;;;;4.28;1.33;;;;;;;20.67;81.06;101009.63;5202806;28;20194;-73
2022/08/02 05:51:19;;;;;;;4.03;1.30;;;;;;;20.89;75.04;101002.72;5203932;28;20498;-73
2022/08/02 05:53:50;;;;;;;3.53;1.40;;;;;;;20.48;78.38;101009.22;5203597;28;20112;-73
2022/08/02 05:56:43;;;;;;;3.80;1.30;;;;;;;19.96;80.70;101019.00;5203240;28;20055;-73
2022/08/02 05:59:32;;;;;;;6.53;1.65;;;;;;;19.66;81.07;101023.69;5199970;28;20512;-73
2022/08/02 06:02:18;;;;;;;3.65;1.20;;;;;;;20.02;79.48;101013.31;5203002;28;20243;-73
2022/08/02 06:04:58;;;;;;;8.43;1.83;;;;;;;22.47;69.64;101006.81;5200577;28;20428;-73
2022/08/02 06:07:29;;;;;;;7.95;1.58;;;;;;;23.98;67.93;101007.69;5203565;28;20581;-72
2022/08/02 06:10:02;;;;;;;4.78;1.40;;;;;;;24.50;64.50;101021.00;5201865;28;20120;-73
2022/08/02 06:12:40;;;;;;;6.53;1.25;;;;;;;22.48;71.19;101020.03;5202150;28;20191;-73
2022/08/02 06:15:13;;;;;;;6.00;1.42;;;;;;;20.40;81.66;101023.97;5198918;28;20055;-72
2022/08/02 06:17:44;;;;;;;7.18;1.55;;;;;;;22.16;73.41;101018.94;5202404;28;20048;-74
2022/08/02 06:20:15;;;;;;;6.25;1.52;;;;;;;22.47;73.14;101018.31;5201526;28;20029;-74
2022/08/02 06:22:46;;;;;;;9.43;1.80;;;;;;;22.88;70.43;101019.41;5202867;28;20495;-73
2022/08/02 06:25:18;;;;;;;5.32;1.50;;;;;;;21.50;74.44;101023.06;5202478;28;20044;-73
2022/08/02 06:27:48;;;;;;;8.18;1.65;;;;;;;20.54;78.00;101013.25;5201988;28;20039;-72
2022/08/02 06:30:18;;;;;;;6.32;1.40;;;;;;;20.53;77.18;101027.50;5201445;28;20029;-73
2022/08/02 06:32:51;;;;;;;7.47;1.60;;;;;;;21.02;76.79;101015.97;5202827;28;20037;-73
2022/08/02 06:35:24;;;;;;;7.00;1.52;;;;;;;21.37;77.20;101022.31;5202262;28;20040;-73
2022/08/02 06:38:02;;;;;;;4.82;1.40;;;;;;;22.05;74.43;101010.91;5201993;28;20486;-74
2022/08/02 06:40:42;;;;;;;6.78;1.35;;;;;;;22.03;74.50;101022.63;5200871;28;20534;-73
2022/08/02 06:43:21;;;;;;;4.57;1.38;;;;;;;22.41;72.59;101010.78;5199396;28;20022;-73
2022/08/02 06:45:51;;;;;;;6.68;1.25;;;;;;;22.65;70.97;101005.38;5202356;28;20037;-73
2022/08/02 06:48:21;;;;;;;5.38;1.30;;;;;;;22.63;73.18;101002.81;5201435;28;20044;-74
2022/08/02 06:50:52;;;;;;;9.43;1.60;;;;;;;23.28;69.90;101009.09;5201828;28;20090;-73
2022/08/02 06:53:22;;;;;;;5.72;1.35;;;;;;;23.21;71.99;101002.59;5202486;28;20021;-73
2022/08/02 06:55:52;;;;;;;6.65;1.40;;;;;;;23.83;69.46;101001.81;5198874;28;20296;-74
2022/08/02 06:58:23;;;;;;;9.05;1.73;;;;;;;22.42;73.74;101008.97;5200523;28;20502;-71
2022/08/02 07:00:53;;;;;;;6.70;1.50;;;;;;;23.56;71.91;101006.72;5201926;28;20412;-74
2022/08/02 07:03:26;;;;;;;6.57;1.50;;;;;;;24.33;69.63;101001.06;5201442;28;20071;-73
2022/08/02 07:05:57;;;;;;;10.93;2.35;;;;;;;23.88;67.94;101007.63;5201821;28;20120;-73
2022/08/02 07:08:37;;;;;;;7.85;1.70;;;;;;;24.01;68.19;101002.13;5199955;28;20113;-73
2022/08/02 07:11:08;;;;;;;5.00;1.30;;;;;;;24.97;64.10;100998.03;5195988;28;20511;-73
2022/08/02 07:13:38;;;;;;;5.10;1.40;;;;;;;26.29;63.80;100987.63;5201523;28;20057;-73
2022/08/02 07:16:09;;;;;;;6.65;1.50;;;;;;;25.95;63.66;100992.63;5201827;28;20511;-73
2022/08/02 07:18:39;;;;;;;8.00;1.40;;;;;;;24.34;68.26;100989.41;5201407;28;20021;-72
2022/08/02 07:21:09;;;;;;;5.43;1.40;;;;;;;25.88;64.88;100986.16;5201449;28;20800;-74
2022/08/02 07:23:40;;;;;;;5.50;1.40;;;;;;;26.50;62.81;100985.66;5201287;28;20021;-73
2022/08/02 07:26:10;;;;;;;5.75;1.67;;;;;;;24.92;66.36;100986.91;5201594;28;20280;-72
2022/08/02 07:28:40;;;;;;;7.32;1.40;;;;;;;24.86;68.13;100987.47;5199715;28;20636;-73
2022/08/02 07:31:11;;;;;;;6.18;1.48;;;;;;;25.90;66.00;100980.63;5202113;28;20089;-73
2022/08/02 07:33:41;;;;;;;8.23;1.48;;;;;;;28.00;60.81;100977.72;5201339;28;20033;-73
2022/08/02 07:36:11;;;;;;;5.37;1.53;;;;;;;26.46;63.86;100981.53;5201141;28;20395;-71
2022/08/02 07:38:41;;;;;;;6.30;1.77;;;;;;;28.45;58.18;100973.03;5199315;28;20287;-73
2022/08/02 07:41:12;;;;;;;6.18;1.73;;;;;;;28.77;58.67;100957.94;5200623;28;20295;-73
2022/08/02 07:43:42;;;;;;;6.47;1.50;;;;;;;28.60;59.49;100959.81;5199782;28;20074;-73
2022/08/02 07:46:12;;;;;;;5.07;1.53;;;;;;;27.39;62.31;100949.06;5200986;28;20103;-73
2022/08/02 07:48:45;;;;;;;3.97;1.37;;;;;;;28.00;60.87;100939.25;5200687;28;20330;-73
2022/08/02 07:51:15;;;;;;;7.07;1.45;;;;;;;28.12;60.52;100935.31;5200968;28;20345;-73
2022/08/02 07:53:46;;;;;;;5.85;1.50;;;;;;;27.64;61.56;100942.94;5201372;28;20033;-74
2022/08/02 07:56:16;;;;;;;6.88;1.30;;;;;;;28.68;59.59;100933.78;5201150;28;20113;-73
2022/08/02 07:58:46;;;;;;;6.73;1.60;;;;;;;29.60;57.35;100919.31;5200835;28;20040;-73
2022/08/02 08:01:17;;;;;;;3.58;1.27;;;;;;;27.70;62.32;100926.19;5200040;28;20295;-74
2022/08/02 08:03:47;;;;;;;10.18;1.75;;;;;;;29.06;60.48;100925.25;5199401;28;20033;-73
2022/08/02 08:06:17;;;;;;;6.05;1.60;;;;;;;30.36;57.82;100912.53;5199205;28;20036;-74
2022/08/02 08:08:48;;;;;;;12.23;1.57;;;;;;;30.03;57.26;100916.28;5200908;28;20029;-73
2022/08/02 08:11:18;;;;;;;8.23;1.83;;;;;;;28.58;60.23;100922.31;5200955;28;20272;-73
2022/08/02 08:13:48;;;;;;;5.07;1.57;;;;;;;29.97;58.44;100916.94;5200813;28;20416;-74
2022/08/02 08:16:19;;;;;;;6.45;1.55;;;;;;;30.07;55.74;100923.06;5199060;28;20279;-74
2022/08/02 08:18:49;;;;;;;8.80;1.73;;;;;;;30.32;58.04;100922.84;5200582;28;20029;-74
2022/08/02 08:21:20;;;;;;;5.63;1.38;;;;;;;32.15;55.83;100923.66;5199076;28;20040;-74
2022/08/02 08:23:50;;;;;;;4.38;1.33;;;;;;;32.84;52.76;100920.56;5198382;28;20022;-74
2022/08/02 08:26:21;;;;;;;6.50;1.50;;;;;;;29.87;57.36;100919.81;5200622;28;20596;-74
2022/08/02 08:28:51;;;;;;;5.85;1.85;;;;;;;31.12;54.45;100918.00;5213714;22;20312;-77
2022/08/02 08:31:21;;;;;;;4.53;1.45;;;;;;;30.67;nan;100929.66;5199202;28;20158;-76
2022/08/02 08:33:51;;;;;;;7.73;1.47;;;;;;;32.99;51.66;100932.22;5203036;28;20445;-75
2022/08/02 08:36:22;;;;;;;4.33;1.50;;;;;;;32.56;51.69;100933.03;5200250;28;20025;-74
2022/08/02 08:38:53;;;;;;;5.90;1.40;;;;;;;33.03;51.46;100915.38;5200184;28;20283;-75
2022/08/02 08:41:23;;;;;;;5.50;1.55;;;;;;;31.21;53.92;100914.22;5198895;28;20514;-74
2022/08/02 08:43:53;;;;;;;4.33;1.40;;;;;;;31.53;54.04;100926.69;5199563;28;20037;-75
2022/08/02 08:46:34;;;;;;;5.67;1.37;;;;;;;32.91;50.30;100917.94;5200265;28;20303;-75
2022/08/02 08:49:25;;;;;;;5.03;1.30;;;;;;;31.84;51.66;100920.22;5200182;28;20692;-75
2022/08/02 08:52:02;;;;;;;4.50;1.20;;;;;;;30.85;51.68;100917.63;5197715;28;20031;-74
2022/08/02 08:54:34;;;;;;;4.63;1.30;;;;;;;30.66;53.26;100914.50;5193600;28;20549;-74
2022/08/02 08:57:05;;;;;;;3.05;1.30;;;;;;;32.00;51.11;100909.25;5194386;28;20116;-74
2022/08/02 08:59:36;;;;;;;4.40;1.33;;;;;;;33.07;48.55;100899.56;5198693;28;20136;-74
2022/08/02 09:02:09;;;;;;;5.22;1.52;;;;;;;30.86;51.07;100901.22;5200707;28;20349;-74
2022/08/02 09:04:40;;;;;;;5.00;1.45;;;;;;;30.97;52.75;100897.28;5203736;28;20071;-74
2022/08/02 09:07:10;;;;;;;5.80;1.80;;;;;;;31.24;53.45;100904.94;5199999;28;20033;-74
2022/08/02 09:09:41;;;;;;;4.75;1.70;;;;;;;30.76;52.77;100901.63;5197476;28;20440;-73
2022/08/02 09:12:13;;;;;;;9.60;1.83;;;;;;;30.74;54.06;100900.97;5201807;28;20386;-74
2022/08/02 09:14:45;;;;;;;5.30;1.58;;;;;;;30.13;55.87;100893.53;5204438;28;20030;-74
2022/08/02 09:17:16;;;;;;;5.72;1.73;;;;;;;31.14;51.86;100888.94;5203809;28;20025;-74
2022/08/02 09:20:04;;;;;;;4.70;1.50;;;;;;;29.56;57.12;100885.63;5202910;28;20112;-74
2022/08/02 09:22:34;;;;;;;6.72;2.10;;;;;;;28.97;56.92;100902.84;5200676;28;20506;-75
2022/08/02 09:25:14;;;;;;;5.57;2.00;;;;;;;29.60;56.60;100895.06;5199924;28;20021;-75
2022/08/02 09:27:47;;;;;;;6.68;1.85;;;;;;;29.57;57.30;100887.31;5198919;28;20041;-76
2022/08/02 09:30:17;;;;;;;6.80;1.90;;;;;;;29.07;57.30;100879.28;5202023;28;20079;-76
2022/08/02 09:32:48;;;;;;;6.63;2.22;;;;;;;28.06;56.78;100891.06;5201894;28;20156;-76
2022/08/02 09:35:36;;;;;;;9.50;2.30;;;;;;;27.65;59.76;100889.03;5201596;28;20112;-75
2022/08/02 09:38:12;;;;;;;7.93;2.42;;;;;;;28.53;57.76;100875.38;5196748;28;20025;-73
2022/08/02 09:40:43;;;;;;;;;;;;;;;28.16;59.27;100882.88;5203388;28;20032;-76
2022/08/02 09:43:15;;;;;;;5.10;1.90;;;;;;;28.70;58.42;100877.13;5198241;28;20412;-75
2022/08/02 09:45:45;;;;;;;6.20;1.70;;;;;;;29.02;57.24;100875.41;5202788;28;20356;-75
2022/08/02 09:48:16;;;;;;;6.07;1.50;;;;;;;29.28;54.88;100862.66;5201801;28;20099;-75
2022/08/02 09:50:47;;;;;;;4.38;1.20;;;;;;;29.46;56.86;100863.34;5202941;28;20104;-75
2022/08/02 09:53:19;;;;;;;3.25;1.40;;;;;;;29.45;57.43;100865.22;5202217;28;20546;-75
2022/08/02 09:55:56;;;;;;;5.65;1.60;;;;;;;29.65;58.15;100865.75;5202526;28;20613;-75
2022/08/02 09:58:26;;;;;;;4.50;1.25;;;;;;;29.18;54.99;100859.28;5202098;28;20033;-75
2022/08/02 10:01:00;;;;;;;3.55;1.20;;;;;;;28.67;55.49;100856.75;5198604;28;20446;-73
2022/08/02 10:03:31;;;;;;;4.82;1.10;;;;;;;28.91;56.88;100862.28;5205358;28;20084;-75
2022/08/02 10:06:03;;;;;;;4.60;1.20;;;;;;;28.31;55.88;100857.13;5202515;28;20049;-74
2022/08/02 10:08:33;;;;;;;2.58;1.08;;;;;;;29.40;55.42;100858.66;5200438;28;20041;-75
2022/08/02 10:11:04;;;;;;;5.85;1.30;;;;;;;28.83;55.20;100846.03;5202633;28;20391;-74
2022/08/02 10:13:35;;;;;;;4.80;1.50;;;;;;;28.44;56.73;100849.47;5201689;28;20037;-73
2022/08/02 10:16:06;;;;;;;3.05;1.10;;;;;;;29.17;55.86;100853.06;5198453;28;20025;-75
2022/08/02 10:18:36;;;;;;;3.45;1.15;;;;;;;28.34;56.81;100856.81;5200494;28;20124;-75
2022/08/02 10:21:18;;;;;;;5.10;1.20;;;;;;;28.22;55.80;100850.84;5201892;28;20037;-76
2022/08/02 10:23:51;;;;;;;3.22;1.15;;;;;;;28.01;57.05;100860.28;5200616;28;20049;-75
2022/08/02 10:26:22;;;;;;;3.58;1.45;;;;;;;27.64;57.22;100857.78;5201285;28;20025;-75
2022/08/02 10:28:53;;;;;;;4.78;1.58;;;;;;;27.05;57.66;100854.03;5199969;28;20033;-75
2022/08/02 10:31:32;;;;;;;5.95;1.30;;;;;;;27.63;58.43;100849.91;5201617;28;20040;-75
2022/08/02 10:34:09;;;;;;;1.95;1.02;;;;;;;27.70;59.95;100851.81;5201051;28;20039;-75
2022/08/02 10:36:41;;;;;;;2.33;0.95;;;;;;;28.03;55.25;100845.69;5200006;28;20653;-75
2022/08/02 10:39:11;;;;;;;3.58;1.20;;;;;;;27.78;58.54;100851.06;5197257;28;20112;-75
2022/08/02 10:41:43;;;;;;;3.15;1.17;;;;;;;27.46;58.60;100846.22;5201534;28;20466;-75
2022/08/02 10:44:28;;;;;;;4.63;1.23;;;;;;;27.64;57.32;100857.78;5200736;28;20055;-75
2022/08/02 10:47:24;;;;;;;4.50;1.58;;;;;;;27.52;56.74;100850.13;5201251;28;20136;-74
2022/08/02 10:49:56;;;;;;;3.80;1.38;;;;;;;27.76;55.93;100851.19;5199642;28;20152;-75
2022/08/02 10:52:28;;;;;;;4.68;1.38;;;;;;;27.54;56.79;100851.69;5199365;28;20036;-74
2022/08/02 10:55:08;;;;;;;1.70;1.10;;;;;;;27.11;57.39;100859.66;5199606;28;20033;-75
2022/08/02 10:57:39;;;;;;;3.50;1.52;;;;;;;27.43;58.63;100851.91;5200214;28;20021;-75
2022/08/02 11:00:25;;;;;;;4.32;1.52;;;;;;;27.28;58.11;100856.13;5200163;28;20661;-75
2022/08/02 11:02:56;;;;;;;3.70;1.65;;;;;;;26.96;58.59;100850.41;5199539;28;20021;-75
2022/08/02 11:05:29;;;;;;;5.50;1.95;;;;;;;26.84;57.64;100840.91;5200110;28;20529;-75
2022/08/02 11:08:20;;;;;;;4.65;1.58;;;;;;;27.32;60.73;100840.56;5198200;28;20616;-76
2022/08/02 11:10:57;;;;;;;4.57;1.30;;;;;;;27.31;59.38;100834.34;5198515;28;20048;-75
2022/08/02 11:13:29;;;;;;;10.38;1.63;;;;;;;27.37;58.30;100831.06;5200148;28;20068;-75
2022/08/02 11:16:00;;;;;;;3.75;1.33;;;;;;;27.54;58.28;100834.72;5200962;28;20040;-75
2022/08/02 11:18:42;;;;;;;4.97;1.40;;;;;;;27.62;58.02;100832.94;5195124;28;20120;-75
2022/08/02 11:21:23;;;;;;;5.45;1.33;;;;;;;27.23;58.70;100828.91;5196587;28;20116;-75
2022/08/02 11:23:54;;;;;;;3.60;1.60;;;;;;;27.60;61.35;100829.56;5200308;28;20032;-74
2022/08/02 11:26:30;;;;;;;4.13;1.65;;;;;;;27.65;60.94;100829.09;5199429;28;20099;-75
2022/08/02 11:29:03;;;;;;;3.15;1.30;;;;;;;27.56;59.57;100824.66;5200025;28;20057;-75
2022/08/02 11:31:41;;;;;;;5.20;1.60;;;;;;;27.52;58.34;100823.28;5199611;28;20037;-75
2022/08/02 11:34:14;;;;;;;2.45;1.20;;;;;;;27.56;59.47;100812.06;5200599;28;20032;-75
2022/08/02 11:36:47;;;;;;;3.70;1.50;;;;;;;27.61;59.07;100828.56;5198440;28;20450;-75
2022/08/02 11:39:22;;;;;;;5.38;1.33;;;;;;;27.67;57.67;100824.41;5195631;28;20145;-75
2022/08/02 11:41:55;;;;;;;2.58;1.30;;;;;;;27.70;57.86;100816.88;5200153;28;20116;-76
2022/08/02 11:44:28;;;;;;;5.20;1.25;;;;;;;27.76;58.44;100823.50;5199584;28;20029;-73
2022/08/02 11:47:00;;;;;;;2.67;1.20;;;;;;;27.78;59.15;100830.38;5199805;28;20033;-73